createdAt,value
2023-05-04T00:01:24.007Z,101312.69
2023-05-04T00:03:57.763Z,101310.02
2023-05-04T00:06:31.418Z,101311.66
2023-05-04T00:09:05.125Z,101307.27
2023-05-04T00:11:38.704Z,101306.88
2023-05-04T00:14:12.720Z,101307.98
2023-05-04T00:16:46.337Z,101303.96
2023-05-04T00:19:20.259Z,101301.85
2023-05-04T00:21:54.304Z,101304.45
2023-05-04T00:24:28.137Z,101306.58
2023-05-04T00:27:02.709Z,101309.47
2023-05-04T00:29:36.426Z,101310.98
2023-05-04T00:32:10.906Z,101307.39
2023-05-04T00:34:44.705Z,101305.98
2023-05-04T00:37:18.411Z,101310.13
2023-05-04T00:39:52.317Z,101311.64
2023-05-04T00:42:26.464Z,101308.81
2023-05-04T00:45:01.111Z,101308.44
2023-05-04T00:47:34.873Z,101311.06
2023-05-04T00:50:10.627Z,101311.02
2023-05-04T00:52:46.547Z,101314.08
2023-05-04T00:55:20.641Z,101314.08
2023-05-04T00:57:54.945Z,101312.53
2023-05-04T01:00:28.765Z,101316.20
2023-05-04T01:03:02.840Z,101310.79
2023-05-04T01:05:45.033Z,101307.56
2023-05-04T01:08:27.530Z,101307.69
2023-05-04T01:11:09.195Z,101307.08
2023-05-04T01:13:44.956Z,101309.29
2023-05-04T01:16:18.512Z,101309.36
2023-05-04T01:18:52.273Z,101313.25
2023-05-04T01:21:32.228Z,101311.41
2023-05-04T01:24:06.310Z,101309.95
2023-05-04T01:26:43.962Z,101307.77
2023-05-04T01:29:20.767Z,101307.90
2023-05-04T01:31:56.312Z,101306.60
2023-05-04T01:34:29.750Z,101308.90
2023-05-04T01:37:04.234Z,101310.57
2023-05-04T01:39:38.223Z,101309.69
2023-05-04T01:42:11.671Z,101309.10
2023-05-04T01:44:45.290Z,101307.30
2023-05-04T01:47:19.520Z,101306.88
2023-05-04T01:49:52.885Z,101304.05
2023-05-04T01:52:26.191Z,101296.78
2023-05-04T01:55:00.121Z,101299.36
2023-05-04T01:57:33.756Z,101299.57
2023-05-04T02:00:08.368Z,101299.31
2023-05-04T02:02:51.363Z,101298.31
2023-05-04T02:05:25.870Z,101301.42
2023-05-04T02:08:00.294Z,101305.70
2023-05-04T02:10:34.270Z,101304.46
2023-05-04T02:13:07.709Z,101304.16
2023-05-04T02:15:41.167Z,101305.41
2023-05-04T02:18:14.640Z,101306.91
2023-05-04T02:20:48.536Z,101304.66
2023-05-04T02:23:22.277Z,101307.36
2023-05-04T02:25:56.371Z,101306.83
2023-05-04T02:28:31.140Z,101304.27
2023-05-04T02:31:04.635Z,101304.08
2023-05-04T02:33:38.293Z,101309.20
2023-05-04T02:36:12.500Z,101308.96
2023-05-04T02:38:46.937Z,101311.59
2023-05-04T02:41:20.869Z,101315.16
2023-05-04T02:43:55.053Z,101309.66
2023-05-04T02:46:28.493Z,101306.86
2023-05-04T02:49:04.486Z,101304.67
2023-05-04T02:51:38.379Z,101306.19
2023-05-04T02:54:12.384Z,101304.92
2023-05-04T02:56:46.102Z,101302.88
2023-05-04T02:59:19.700Z,101303.90
2023-05-04T03:01:53.761Z,101305.25
2023-05-04T03:04:27.774Z,101305.85
2023-05-04T03:07:02.043Z,101307.84
2023-05-04T03:09:36.106Z,101305.11
2023-05-04T03:12:09.865Z,101308.96
2023-05-04T03:14:43.797Z,101312.82
2023-05-04T03:17:18.141Z,101310.52
2023-05-04T03:19:52.077Z,101313.02
2023-05-04T03:22:26.429Z,101315.86
2023-05-04T03:25:00.468Z,101313.75
2023-05-04T03:27:34.144Z,101315.59
2023-05-04T03:30:09.754Z,101313.30
2023-05-04T03:32:43.867Z,101313.33
2023-05-04T03:35:24.368Z,101312.16
2023-05-04T03:37:59.983Z,101311.71
2023-05-04T03:40:33.500Z,101314.52
2023-05-04T03:43:07.182Z,101310.98
2023-05-04T03:45:41.056Z,101311.70
2023-05-04T03:48:14.875Z,101311.60
2023-05-04T03:50:48.709Z,101315.36
2023-05-04T03:53:22.271Z,101317.80
2023-05-04T03:55:56.110Z,101316.14
2023-05-04T03:58:30.034Z,101318.19
2023-05-04T04:01:08.139Z,101316.70
2023-05-04T04:03:42.399Z,101319.55
2023-05-04T04:06:16.287Z,101321.95
2023-05-04T04:08:50.103Z,101321.37
2023-05-04T04:11:24.558Z,101322.48
2023-05-04T04:13:58.079Z,101328.17
2023-05-04T04:16:31.820Z,101327.18
2023-05-04T04:19:07.163Z,101327.19
2023-05-04T04:21:41.037Z,101328.91
2023-05-04T04:24:14.711Z,101330.05
2023-05-04T04:26:48.512Z,101335.18
2023-05-04T04:29:22.250Z,101337.98
2023-05-04T04:31:56.160Z,101340.15
2023-05-04T04:34:30.178Z,101339.90
2023-05-04T04:37:03.847Z,101340.11
2023-05-04T04:39:37.340Z,101339.04
2023-05-04T04:42:11.083Z,101340.08
2023-05-04T04:44:46.035Z,101336.45
2023-05-04T04:47:19.553Z,101335.77
2023-05-04T04:49:53.152Z,101332.65
2023-05-04T04:52:27.299Z,101327.16
2023-05-04T04:55:00.996Z,101326.19
2023-05-04T04:57:34.710Z,101325.17
2023-05-04T05:00:11.697Z,101328.94
2023-05-04T05:02:45.617Z,101324.89
2023-05-04T05:05:19.584Z,101323.48
2023-05-04T05:07:53.365Z,101322.92
2023-05-04T05:10:27.295Z,101328.48
2023-05-04T05:13:01.078Z,101331.52
2023-05-04T05:15:35.028Z,101325.82
2023-05-04T05:18:09.027Z,101321.34
2023-05-04T05:20:42.994Z,101322.17
2023-05-04T05:23:16.823Z,101327.05
2023-05-04T05:25:51.866Z,101324.35
2023-05-04T05:28:26.120Z,101319.16
2023-05-04T05:31:00.216Z,101322.63
2023-05-04T05:33:34.317Z,101325.52
2023-05-04T05:36:08.491Z,101319.67
2023-05-04T05:38:42.414Z,101316.75
2023-05-04T05:41:16.713Z,101317.55
2023-05-04T05:43:50.507Z,101315.58
2023-05-04T05:46:25.442Z,101314.05
2023-05-04T05:48:59.254Z,101315.30
2023-05-04T05:51:33.711Z,101316.34
2023-05-04T05:54:07.520Z,101315.20
2023-05-04T05:56:41.415Z,101313.60
2023-05-04T05:59:16.287Z,101312.32
2023-05-04T06:01:50.426Z,101306.15
2023-05-04T06:04:24.290Z,101299.75
2023-05-04T06:06:58.597Z,101295.20
2023-05-04T06:09:32.941Z,101294.44
2023-05-04T06:12:12.660Z,101292.70
2023-05-04T06:14:46.239Z,101285.19
2023-05-04T06:17:22.147Z,101286.30
2023-05-04T06:20:06.007Z,101286.83
2023-05-04T06:22:40.080Z,101288.30
2023-05-04T06:25:14.058Z,101287.05
2023-05-04T06:27:48.088Z,101281.05
2023-05-04T06:30:25.225Z,101281.48
2023-05-04T06:32:58.786Z,101282.91
2023-05-04T06:35:32.536Z,101282.96
2023-05-04T06:38:06.063Z,101285.89
2023-05-04T06:40:39.575Z,101284.93
2023-05-04T06:43:13.320Z,101286.28
2023-05-04T06:45:47.155Z,101286.94
2023-05-04T06:48:20.571Z,101282.82
2023-05-04T06:50:54.129Z,101287.15
2023-05-04T06:53:28.370Z,101291.04
2023-05-04T06:56:04.664Z,101291.66
2023-05-04T06:58:39.212Z,101290.77
2023-05-04T07:01:12.955Z,101292.38
2023-05-04T07:03:46.604Z,101296.95
2023-05-04T07:06:26.963Z,101296.37
2023-05-04T07:09:00.270Z,101299.04
2023-05-04T07:11:33.837Z,101294.31
2023-05-04T07:14:09.735Z,101295.84
2023-05-04T07:16:44.594Z,101299.83
2023-05-04T07:19:18.257Z,101300.84
2023-05-04T07:21:52.153Z,101301.38
2023-05-04T07:24:25.926Z,101298.70
2023-05-04T07:26:59.578Z,101296.81
2023-05-04T07:29:33.920Z,101296.46
2023-05-04T07:32:07.649Z,101299.54
2023-05-04T07:34:45.514Z,101304.02
2023-05-04T07:37:53.157Z,101304.30
2023-05-04T07:40:27.153Z,101296.96
2023-05-04T07:43:01.237Z,101297.77
2023-05-04T07:45:35.071Z,101297.27
2023-05-04T07:48:09.265Z,101296.32
2023-05-04T07:51:36.615Z,101287.45
2023-05-04T07:54:10.178Z,101286.70
2023-05-04T07:56:43.986Z,101283.20
2023-05-04T07:59:18.813Z,101282.00
2023-05-04T08:01:52.914Z,101284.52
2023-05-04T08:04:26.447Z,101285.21
2023-05-04T08:07:00.031Z,101281.52
2023-05-04T08:09:33.789Z,101284.69
2023-05-04T08:12:08.323Z,101281.08
2023-05-04T08:14:42.473Z,101276.77
2023-05-04T08:17:16.163Z,101274.23
2023-05-04T08:19:49.796Z,101278.40
2023-05-04T08:22:23.578Z,101274.82
2023-05-04T08:24:57.696Z,101274.75
2023-05-04T08:27:31.676Z,101276.45
2023-05-04T08:30:05.514Z,101274.71
2023-05-04T08:32:39.536Z,101267.67
2023-05-04T08:35:14.745Z,101270.44
2023-05-04T08:37:49.485Z,101274.41
2023-05-04T08:40:24.610Z,101273.12
2023-05-04T08:42:58.748Z,101273.69
2023-05-04T08:45:33.108Z,101275.91
2023-05-04T08:48:07.872Z,101274.70
2023-05-04T08:50:42.632Z,101274.52
2023-05-04T08:53:17.769Z,101277.44
2023-05-04T08:55:53.526Z,101276.82
2023-05-04T08:58:29.049Z,101278.20
2023-05-04T09:01:04.722Z,101275.01
2023-05-04T09:03:39.224Z,101274.23
2023-05-04T09:06:13.377Z,101275.29
2023-05-04T09:08:47.881Z,101272.87
2023-05-04T09:11:21.975Z,101274.66
2023-05-04T09:13:55.797Z,101276.98
2023-05-04T09:16:38.222Z,101273.04
2023-05-04T09:19:22.907Z,101272.87
2023-05-04T09:21:56.619Z,101263.46
2023-05-04T09:24:31.291Z,101261.71
2023-05-04T09:27:16.206Z,101262.31
2023-05-04T09:29:56.790Z,101258.27
2023-05-04T09:32:30.704Z,101256.17
2023-05-04T09:35:04.299Z,101255.27
2023-05-04T09:37:47.398Z,101258.88
2023-05-04T09:40:31.337Z,101259.41
2023-05-04T09:43:07.200Z,101258.52
2023-05-04T09:45:49.623Z,101256.09
2023-05-04T09:48:35.439Z,101252.61
2023-05-04T09:51:10.561Z,101243.27
2023-05-04T09:53:46.298Z,101235.36
2023-05-04T09:56:29.288Z,101227.35
2023-05-04T09:59:03.793Z,101226.52
2023-05-04T10:01:38.380Z,101226.67
2023-05-04T10:04:13.415Z,101229.14
2023-05-04T10:06:47.685Z,101228.64
2023-05-04T10:09:23.079Z,101231.68
2023-05-04T10:12:00.063Z,101232.51
2023-05-04T10:14:37.125Z,101227.02
2023-05-04T10:17:23.004Z,101226.08
2023-05-04T10:20:08.848Z,101225.66
2023-05-04T10:22:59.428Z,101225.54
2023-05-04T10:25:54.546Z,101223.45
2023-05-04T10:28:43.790Z,101219.73
2023-05-04T10:31:21.880Z,101220.46
2023-05-04T10:33:56.634Z,101214.07
2023-05-04T10:36:39.613Z,101210.94
2023-05-04T10:39:23.055Z,101215.08
2023-05-04T10:42:16.947Z,101214.27
2023-05-04T10:44:57.594Z,101210.61
2023-05-04T10:47:36.086Z,101202.38
2023-05-04T10:50:14.735Z,101201.75
2023-05-04T10:52:54.057Z,101196.23
2023-05-04T10:55:41.098Z,101198.41
2023-05-04T10:58:17.171Z,101199.31
2023-05-04T11:00:55.060Z,101198.02
2023-05-04T11:03:39.657Z,101196.55
2023-05-04T11:06:24.005Z,101189.44
2023-05-04T11:09:11.167Z,101183.16
2023-05-04T11:11:45.515Z,101179.86
2023-05-04T11:14:28.652Z,101175.22
2023-05-04T11:17:27.600Z,101173.75
2023-05-04T11:20:03.115Z,101167.38
2023-05-04T11:22:38.748Z,101169.98
2023-05-04T11:25:13.102Z,101163.01
2023-05-04T11:27:50.847Z,101160.23
2023-05-04T11:30:32.915Z,101155.67
2023-05-04T11:33:14.448Z,101147.77
2023-05-04T11:35:48.270Z,101149.16
2023-05-04T11:38:22.847Z,101149.30
2023-05-04T11:40:57.605Z,101142.86
2023-05-04T11:43:32.280Z,101140.95
2023-05-04T11:46:08.706Z,101138.77
2023-05-04T11:48:45.846Z,101137.22
2023-05-04T11:51:19.524Z,101139.02
2023-05-04T11:53:53.189Z,101133.08
2023-05-04T11:56:26.899Z,101128.48
2023-05-04T11:59:11.363Z,101128.33
2023-05-04T12:01:45.261Z,101133.58
2023-05-04T12:04:19.344Z,101130.38
2023-05-04T12:06:52.977Z,101120.70
2023-05-04T12:09:27.264Z,101117.31
2023-05-04T12:12:01.029Z,101115.81
2023-05-04T12:14:35.270Z,101116.45
2023-05-04T12:17:08.657Z,101118.55
2023-05-04T12:19:51.430Z,101116.69
2023-05-04T12:22:33.023Z,101112.55
2023-05-04T12:25:09.512Z,101111.34
2023-05-04T12:27:45.786Z,101104.50
2023-05-04T12:30:20.101Z,101102.23
2023-05-04T12:32:54.014Z,101097.30
2023-05-04T12:35:28.317Z,101098.77
2023-05-04T12:38:02.375Z,101090.79
2023-05-04T12:40:36.826Z,101083.80
2023-05-04T12:43:11.382Z,101083.28
2023-05-04T12:45:45.014Z,101083.88
2023-05-04T12:48:18.847Z,101081.17
2023-05-04T12:50:53.346Z,101076.77
2023-05-04T12:53:31.816Z,101072.52
2023-05-04T12:56:05.991Z,101071.93
2023-05-04T12:58:40.146Z,101070.22
2023-05-04T13:01:13.832Z,101075.63
2023-05-04T13:03:47.433Z,101077.39
2023-05-04T13:06:21.638Z,101079.72
2023-05-04T13:08:55.285Z,101081.78
2023-05-04T13:11:29.386Z,101077.95
2023-05-04T13:14:03.700Z,101073.02
2023-05-04T13:16:37.659Z,101069.65
2023-05-04T13:19:11.677Z,101068.77
2023-05-04T13:21:45.809Z,101062.20
2023-05-04T13:24:19.624Z,101057.14
2023-05-04T13:26:53.419Z,101062.57
2023-05-04T13:29:27.498Z,101051.93
2023-05-04T13:32:01.132Z,101053.20
2023-05-04T13:34:35.016Z,101050.86
2023-05-04T13:37:08.736Z,101042.77
2023-05-04T13:39:45.875Z,101042.91
2023-05-04T13:42:20.343Z,101043.47
2023-05-04T13:44:54.339Z,101041.60
2023-05-04T13:47:27.883Z,101036.81
2023-05-04T13:50:02.335Z,101034.82
2023-05-04T13:52:36.322Z,101029.74
2023-05-04T13:55:11.590Z,101029.82
2023-05-04T13:57:45.662Z,101030.07
2023-05-04T14:00:21.256Z,101025.75
2023-05-04T14:02:55.317Z,101024.77
2023-05-04T14:05:29.545Z,101023.73
2023-05-04T14:08:03.586Z,101018.30
2023-05-04T14:10:37.727Z,101014.32
2023-05-04T14:13:11.793Z,101008.56
2023-05-04T14:15:46.437Z,101003.95
2023-05-04T14:18:20.424Z,100998.52
2023-05-04T14:20:54.695Z,100996.19
2023-05-04T14:23:28.560Z,100999.00
2023-05-04T14:26:02.492Z,101002.27
2023-05-04T14:28:36.778Z,101002.52
2023-05-04T14:31:10.565Z,101003.24
2023-05-04T14:33:45.928Z,100999.60
2023-05-04T14:36:19.440Z,100992.98
2023-05-04T14:38:53.418Z,100987.52
2023-05-04T14:41:27.462Z,100992.13
2023-05-04T14:44:22.980Z,100988.45
2023-05-04T14:46:57.267Z,100982.48
2023-05-04T14:52:09.587Z,100979.60
2023-05-04T14:54:46.427Z,100979.27
2023-05-04T14:57:20.180Z,100977.98
2023-05-04T14:59:54.369Z,100977.02
2023-05-04T15:02:28.312Z,100981.36
2023-05-04T15:05:02.630Z,100981.14
2023-05-04T15:07:36.539Z,100980.58
2023-05-04T15:10:12.582Z,100972.83
2023-05-04T15:12:46.776Z,100974.95
2023-05-04T15:15:21.625Z,100969.45
2023-05-04T15:17:59.815Z,100966.71
2023-05-04T15:20:33.911Z,100966.29
2023-05-04T15:23:11.374Z,100966.23
2023-05-04T15:25:44.969Z,100961.66
2023-05-04T15:28:23.004Z,100956.98
2023-05-04T15:30:57.320Z,100951.42
2023-05-04T15:33:31.502Z,100950.74
2023-05-04T15:36:09.672Z,100946.58
2023-05-04T15:38:45.289Z,100941.27
2023-05-04T15:41:19.418Z,100940.39
2023-05-04T15:43:53.364Z,100937.68
2023-05-04T15:46:27.102Z,100939.11
2023-05-04T15:49:01.026Z,100938.38
2023-05-04T15:51:35.492Z,100932.18
2023-05-04T15:54:09.502Z,100928.83
2023-05-04T15:56:43.499Z,100929.33
2023-05-04T15:59:18.300Z,100928.20
2023-05-04T16:01:52.165Z,100925.64
2023-05-04T16:04:25.798Z,100925.20
2023-05-04T16:06:59.647Z,100924.70
2023-05-04T16:09:33.584Z,100922.75
2023-05-04T16:12:08.318Z,100922.64
2023-05-04T16:14:42.267Z,100923.46
2023-05-04T16:17:17.083Z,100920.02
2023-05-04T16:19:50.748Z,100921.30
2023-05-04T16:22:24.412Z,100922.20
2023-05-04T16:24:58.016Z,100920.70
2023-05-04T16:27:31.344Z,100921.77
2023-05-04T16:30:05.069Z,100921.48
2023-05-04T16:32:39.371Z,100918.33
2023-05-04T16:35:13.588Z,100918.48
2023-05-04T16:37:47.272Z,100919.30
2023-05-04T16:40:21.923Z,100917.00
2023-05-04T16:42:55.779Z,100914.55
2023-05-04T16:45:32.212Z,100913.44
2023-05-04T16:48:07.174Z,100911.42
2023-05-04T16:50:41.745Z,100910.60
2023-05-04T16:53:15.212Z,100909.32
2023-05-04T16:55:48.991Z,100908.77
2023-05-04T16:58:22.950Z,100911.06
2023-05-04T17:00:58.651Z,100909.66
2023-05-04T17:03:33.098Z,100908.09
2023-05-04T17:06:07.750Z,100907.11
2023-05-04T17:08:41.873Z,100905.07
2023-05-04T17:11:16.396Z,100903.85
2023-05-04T17:13:50.113Z,100909.02
2023-05-04T17:16:23.528Z,100913.41
2023-05-04T17:18:57.385Z,100912.55
2023-05-04T17:21:31.524Z,100912.21
2023-05-04T17:24:05.372Z,100916.61
2023-05-04T17:26:39.516Z,100913.95
2023-05-04T17:29:13.291Z,100916.03
2023-05-04T17:31:46.824Z,100913.69
2023-05-04T17:34:20.498Z,100909.82
2023-05-04T17:36:54.241Z,100913.55
2023-05-04T17:39:27.732Z,100917.52
2023-05-04T17:42:02.076Z,100916.66
2023-05-04T17:44:35.843Z,100913.17
2023-05-04T17:47:09.809Z,100916.77
2023-05-04T17:49:43.636Z,100922.41
2023-05-04T17:52:17.816Z,100926.86
2023-05-04T17:54:51.662Z,100926.84
2023-05-04T17:57:25.276Z,100925.03
2023-05-04T18:00:00.088Z,100925.87
2023-05-04T18:02:34.970Z,100927.27
2023-05-04T18:05:10.323Z,100926.33
2023-05-04T18:07:44.241Z,100932.66
2023-05-04T18:10:18.359Z,100939.20
2023-05-04T18:12:56.970Z,100943.46
2023-05-04T18:15:29.206Z,100943.17
2023-05-04T18:18:03.714Z,100944.88
2023-05-04T18:20:37.179Z,100944.65
2023-05-04T18:23:11.743Z,100950.54
2023-05-04T18:25:45.809Z,100951.74
2023-05-04T18:28:21.344Z,100957.06
2023-05-04T18:30:55.332Z,100963.33
2023-05-04T18:33:29.523Z,100968.48
2023-05-04T18:36:03.888Z,100972.15
2023-05-04T18:38:38.877Z,100974.23
2023-05-04T18:41:13.687Z,100978.23
2023-05-04T18:43:49.071Z,100978.92
2023-05-04T18:46:28.186Z,100984.67
2023-05-04T18:49:02.051Z,100989.81
2023-05-04T18:51:42.369Z,100990.96
2023-05-04T18:54:18.029Z,100989.20
2023-05-04T18:56:54.437Z,100985.98
2023-05-04T18:59:29.635Z,100984.64
2023-05-04T19:02:05.998Z,100986.44
2023-05-04T19:04:40.540Z,100986.41
2023-05-04T19:07:15.757Z,100984.50
2023-05-04T19:09:49.775Z,100986.29
2023-05-04T19:12:24.322Z,100986.87
2023-05-04T19:14:58.225Z,100987.01
2023-05-04T19:17:35.435Z,100987.85
2023-05-04T19:20:11.289Z,100987.63
2023-05-04T19:22:45.269Z,100988.54
2023-05-04T19:25:30.930Z,100982.30
2023-05-04T19:28:09.771Z,100989.03
2023-05-04T19:30:43.766Z,100993.45
2023-05-04T19:33:17.112Z,100997.27
2023-05-04T19:35:50.577Z,100994.49
2023-05-04T19:38:24.790Z,101000.08
2023-05-04T19:40:59.393Z,100999.23
2023-05-04T19:43:33.941Z,101000.05
2023-05-04T19:46:08.408Z,101000.42
2023-05-04T19:48:42.229Z,101000.79
2023-05-04T19:51:16.035Z,100997.74
2023-05-04T19:53:49.408Z,101000.59
2023-05-04T19:56:23.223Z,101000.23
2023-05-04T19:58:57.439Z,101001.55
2023-05-04T20:01:32.058Z,100994.84
2023-05-04T20:04:08.635Z,100994.92
2023-05-04T20:06:43.251Z,100995.29
2023-05-04T20:09:18.036Z,100993.89
2023-05-04T20:11:51.504Z,100995.35
2023-05-04T20:14:25.776Z,100993.89
2023-05-04T20:17:00.325Z,100992.78
2023-05-04T20:19:34.504Z,100994.06
2023-05-04T20:22:08.172Z,100993.49
2023-05-04T20:24:41.551Z,100994.91
2023-05-04T20:27:15.498Z,100996.42
2023-05-04T20:29:49.249Z,100992.66
2023-05-04T20:32:23.197Z,100994.33
2023-05-04T20:34:56.955Z,100990.81
2023-05-04T20:37:30.859Z,100995.98
2023-05-04T20:40:04.543Z,100997.60
2023-05-04T20:42:42.409Z,100995.20
2023-05-04T20:45:15.685Z,100996.30
2023-05-04T20:47:49.713Z,100998.48
2023-05-04T20:50:23.355Z,100998.14
2023-05-04T20:52:56.866Z,100995.06
2023-05-04T20:55:33.340Z,100997.08
2023-05-04T20:58:06.684Z,100995.92
2023-05-04T21:00:40.451Z,100996.23
2023-05-04T21:03:13.867Z,100994.92
2023-05-04T21:05:47.438Z,100995.40
2023-05-04T21:08:20.635Z,100991.48
2023-05-04T21:10:54.003Z,100992.13
2023-05-04T21:13:27.669Z,100994.30
2023-05-04T21:16:01.940Z,100992.33
2023-05-04T21:18:36.386Z,100995.30
2023-05-04T21:21:10.542Z,100991.73
2023-05-04T21:23:44.181Z,100991.23
2023-05-04T21:26:18.223Z,100990.20
2023-05-04T21:28:52.596Z,100995.89
2023-05-04T21:31:26.644Z,100994.95
2023-05-04T21:34:00.448Z,100997.33
2023-05-04T21:36:33.993Z,100997.65
2023-05-04T21:39:07.825Z,100994.70
2023-05-04T21:41:41.579Z,100994.12
2023-05-04T21:44:15.036Z,100991.98
2023-05-04T21:46:48.761Z,100990.58
2023-05-04T21:49:22.645Z,100989.80
2023-05-04T21:51:56.248Z,100986.14
2023-05-04T21:54:29.657Z,100986.54
2023-05-04T21:57:03.916Z,100981.48
2023-05-04T21:59:37.517Z,100982.27
2023-05-04T22:02:11.417Z,100983.21
2023-05-04T22:04:47.553Z,100982.86
2023-05-04T22:07:21.096Z,100982.58
2023-05-04T22:09:55.339Z,100980.45
2023-05-04T22:12:29.263Z,100979.36
2023-05-04T22:15:02.876Z,100983.94
2023-05-04T22:17:36.585Z,100983.39
2023-05-04T22:20:11.759Z,100986.48
2023-05-04T22:22:45.371Z,100985.23
2023-05-04T22:25:19.193Z,100987.60
2023-05-04T22:27:53.036Z,100988.28
2023-05-04T22:30:26.493Z,100984.48
2023-05-04T22:33:00.108Z,100982.51
2023-05-04T22:35:33.651Z,100978.95
2023-05-04T22:38:07.679Z,100976.84
2023-05-04T22:40:43.169Z,100976.73
2023-05-04T22:43:16.815Z,100976.29
2023-05-04T22:45:50.688Z,100975.77
2023-05-04T22:48:24.329Z,100973.33
2023-05-04T22:50:58.105Z,100975.47
2023-05-04T22:53:31.757Z,100973.98
2023-05-04T22:56:05.826Z,100972.02
2023-05-04T22:58:39.981Z,100972.55
2023-05-04T23:01:14.167Z,100971.91
2023-05-04T23:03:50.642Z,100972.25
2023-05-04T23:06:24.727Z,100976.52
2023-05-04T23:08:58.412Z,100979.05
2023-05-04T23:11:32.227Z,100982.04
2023-05-04T23:14:05.742Z,100981.20
2023-05-04T23:16:39.533Z,100980.05
2023-05-04T23:19:13.423Z,100979.36
2023-05-04T23:21:47.269Z,100980.06
2023-05-04T23:24:21.041Z,100978.20
2023-05-04T23:26:54.805Z,100973.73
2023-05-04T23:29:28.605Z,100970.38
2023-05-04T23:32:02.330Z,100971.38
2023-05-04T23:34:36.149Z,100970.96
2023-05-04T23:37:09.836Z,100979.83
2023-05-04T23:39:43.493Z,100977.62
2023-05-04T23:42:17.101Z,100974.94
2023-05-04T23:44:50.469Z,100971.90
2023-05-04T23:47:24.234Z,100969.81
2023-05-04T23:49:57.816Z,100969.96
2023-05-04T23:52:31.194Z,100967.73
2023-05-04T23:55:05.176Z,100967.16
2023-05-04T23:57:38.618Z,100964.55
